Breydel — OROS — position and weather

sailwx.info

Track history (hours):
 
Tides and Currents Weather Stations Pressure Air Temp Water Temp Dewpoint Dewpoint Depression Visibility Wind Speed Wind Dir Waves Ship Positions

Breydel

Last reported at 2017-Oct-09 00:20 UTC. Time now 2017-Nov-21 21:22 UTC.
Position N 06°04' E 001°13'.
Warning: this ship's position is 43 days out of date.

Length 124 m; draft 5.5 m.

Type: Dredging. MMSI: 205520000.

Date/timePositionNaut miles runAvg speedWind from/ knotsBaromVisibWave heightAir tempDewpointWater temp
2017-Oct-09 00:20N 06°04' E 001°13'1 1.1
2017-Oct-08 23:00N 06°04' E 001°15'0 0.0
2017-Oct-08 22:30N 06°04' E 001°15'0 0.0
2017-Oct-08 21:59N 06°04' E 001°15'0 0.0
2017-Oct-08 21:14N 06°04' E 001°15'0 0.0
2017-Oct-08 20:59N 06°04' E 001°15'0 0.0
2017-Oct-08 20:17N 06°04' E 001°15'0 0.0
2017-Oct-08 19:58N 06°04' E 001°15'0 0.0
2017-Oct-08 19:19N 06°04' E 001°15'0 0.0
2017-Oct-08 18:58N 06°04' E 001°15'0 0.0
2017-Oct-08 18:25N 06°04' E 001°15'0 0.0
2017-Oct-08 18:00N 06°04' E 001°15'6 5.5
2017-Oct-08 16:55N 05°59' E 001°13'  
2017-Oct-03 07:50N 08°27' W 014°04'310.1
2017-Oct-03 07:30N 08°30' W 014°03'510.2
2017-Oct-03 07:00N 08°34' W 014°01'510.2
2017-Oct-03 06:31N 08°39' W 013°59'510.2
2017-Oct-03 06:01N 08°44' W 013°58'2310.1
2017-Oct-03 03:42N 09°06' W 013°50'210.4
2017-Oct-03 03:30N 09°08' W 013°49'510.2
2017-Oct-03 03:00N 09°13' W 013°47'5 9.9
2017-Oct-03 02:30N 09°17' W 013°46'5 9.9
2017-Oct-03 02:00N 09°22' W 013°44'510.0
2017-Oct-03 01:30N 09°27' W 013°44'4 8.7
2017-Oct-03 01:00N 09°31' W 013°43'0 0.2
2017-Oct-03 00:30N 09°31' W 013°43'0 0.1
2017-Oct-03 00:00N 09°31' W 013°43'0 0.0
2017-Oct-02 23:30N 09°31' W 013°43'0 0.1
2017-Oct-02 23:00N 09°31' W 013°43'0 0.1
2017-Oct-02 22:30N 09°31' W 013°43'0 0.1
2017-Oct-02 22:00N 09°31' W 013°43'0 0.1
2017-Oct-02 21:30N 09°31' W 013°43'0 0.1
2017-Oct-02 21:00N 09°31' W 013°43'0 0.1
2017-Oct-02 20:30N 09°31' W 013°43'0 0.0
2017-Oct-02 20:00N 09°31' W 013°43'0 0.0
2017-Oct-02 19:30N 09°31' W 013°43'0 0.0
2017-Oct-02 19:01N 09°31' W 013°43'0 0.1
2017-Oct-02 18:30N 09°31' W 013°43'0 0.2
2017-Oct-02 18:00N 09°31' W 013°43'0 0.0
2017-Oct-02 17:30N 09°31' W 013°43'0 0.1
2017-Oct-02 17:00N 09°31' W 013°43'0 0.1
2017-Oct-02 16:30N 09°31' W 013°43'0 0.0
2017-Oct-02 16:00N 09°31' W 013°43'0 0.0
2017-Oct-02 15:31N 09°31' W 013°43'0 0.1
2017-Oct-02 15:00N 09°31' W 013°43'0 0.1
2017-Oct-02 14:30N 09°31' W 013°43'0 0.0
2017-Oct-02 14:00N 09°31' W 013°43'0 0.1
2017-Oct-02 13:30N 09°31' W 013°43'0 0.0
2017-Oct-02 13:00N 09°31' W 013°43'0 0.0
2017-Oct-02 12:31N 09°31' W 013°43'5 4.6
2017-Oct-02 11:22N 09°26' W 013°43'2 6.0
2017-Oct-02 11:00N 09°24' W 013°43'0 0.0
2017-Oct-02 10:30N 09°24' W 013°43'0 0.0
2017-Oct-02 10:00N 09°24' W 013°43'0 0.0
2017-Oct-02 09:30N 09°24' W 013°43'0 0.5
2017-Oct-02 09:00N 09°24' W 013°44'0 0.1
2017-Oct-02 08:30N 09°24' W 013°44'0 0.1
2017-Oct-02 08:00N 09°24' W 013°44'0 0.1
2017-Oct-02 07:30N 09°24' W 013°43'0 0.4
2017-Oct-02 07:00N 09°24' W 013°43'0 0.1
2017-Oct-02 06:30N 09°24' W 013°44'0 0.2
2017-Oct-02 06:01N 09°24' W 013°43'0 0.1
2017-Oct-02 05:30N 09°24' W 013°43'0 0.3
2017-Oct-02 05:00N 09°24' W 013°43'3 6.8
2017-Oct-02 04:30N 09°28' W 013°43'4 7.4
2017-Oct-02 04:00N 09°31' W 013°43'0 0.3
2017-Oct-02 03:30N 09°31' W 013°43'0 0.1
2017-Oct-02 03:00N 09°31' W 013°43'0 0.1
2017-Oct-02 02:30N 09°31' W 013°43'0 0.0
2017-Oct-02 02:00N 09°31' W 013°43'0 0.0
2017-Oct-02 01:30N 09°31' W 013°43'0 0.0
2017-Oct-02 01:00N 09°31' W 013°43'0 0.0
2017-Oct-02 00:30N 09°31' W 013°43'0 0.1
2017-Oct-02 00:00N 09°31' W 013°43'0 0.1
2017-Oct-01 23:30N 09°31' W 013°43'0 0.0
2017-Oct-01 23:00N 09°31' W 013°43'0 0.1
2017-Oct-01 22:30N 09°31' W 013°43'0 0.0
2017-Oct-01 22:00N 09°31' W 013°43'0 0.0
2017-Oct-01 21:30N 09°31' W 013°43'0 0.1
2017-Oct-01 21:00N 09°31' W 013°43'0 0.2
2017-Oct-01 20:30N 09°31' W 013°43'0 0.0
2017-Oct-01 20:00N 09°31' W 013°43'0 0.0
2017-Oct-01 19:30N 09°31' W 013°43'0 0.0
2017-Oct-01 19:00N 09°31' W 013°43'0 0.0
2017-Oct-01 18:30N 09°31' W 013°43'0 0.0
2017-Oct-01 18:00N 09°31' W 013°43'0 0.0
2017-Oct-01 17:30N 09°31' W 013°43'0 0.0
2017-Oct-01 17:00N 09°31' W 013°43'0 0.0
2017-Oct-01 16:30N 09°31' W 013°43'0 0.0
2017-Oct-01 16:00N 09°31' W 013°43'0 0.0
2017-Oct-01 15:30N 09°31' W 013°43'0 0.0
2017-Oct-01 15:00N 09°31' W 013°43'0 0.0
2017-Oct-01 14:30N 09°31' W 013°43'0 0.0
2017-Oct-01 14:00N 09°31' W 013°43'0 0.0
2017-Oct-01 13:30N 09°31' W 013°43'0 0.0
2017-Oct-01 13:00N 09°31' W 013°43'0 0.0
2017-Oct-01 12:30N 09°31' W 013°43'0 0.0
2017-Oct-01 12:00N 09°31' W 013°43'0 0.0
2017-Oct-01 11:30N 09°31' W 013°43'0 0.0
2017-Oct-01 11:00N 09°31' W 013°43'0 0.0
2017-Oct-01 10:30N 09°31' W 013°43'0 0.0
2017-Oct-01 10:00N 09°31' W 013°43'0 0.0
2017-Oct-01 09:30N 09°31' W 013°43'0 0.0
2017-Oct-01 09:00N 09°31' W 013°43'0 0.0
2017-Oct-01 08:30N 09°31' W 013°43'0 0.0
2017-Oct-01 08:00N 09°31' W 013°43'0 0.0
2017-Oct-01 07:30N 09°31' W 013°43'0 0.0
2017-Oct-01 07:00N 09°31' W 013°43'0 0.0
2017-Oct-01 06:30N 09°31' W 013°43'0 0.0
2017-Oct-01 06:00N 09°31' W 013°43'0 0.0
2017-Oct-01 05:30N 09°31' W 013°43'0 0.0
2017-Oct-01 05:00N 09°31' W 013°43'0 0.0
2017-Oct-01 04:30N 09°31' W 013°43'0 0.0
2017-Oct-01 04:00N 09°31' W 013°43'0 0.0
2017-Oct-01 03:30N 09°31' W 013°43'0 0.0
2017-Sep-30 02:00N 09°31' W 013°43'0 0.0
2017-Sep-30 01:30N 09°31' W 013°43'0 0.0
2017-Sep-30 01:00N 09°31' W 013°43'0 0.0
2017-Sep-30 00:30N 09°31' W 013°43'0 0.0
2017-Sep-30 00:00N 09°31' W 013°43'0 0.0
2017-Sep-29 23:30N 09°31' W 013°43'0 0.0
2017-Sep-29 23:00N 09°31' W 013°43'0 0.0
2017-Sep-29 22:30N 09°31' W 013°43'0 0.0
2017-Sep-29 21:19N 09°31' W 013°43'0 0.0
2017-Sep-29 21:00N 09°31' W 013°43'0 0.0
2017-Sep-29 20:30N 09°31' W 013°43'0 0.0
2017-Sep-29 20:00N 09°31' W 013°43'0 0.0
2017-Sep-29 19:30N 09°31' W 013°43'0 0.0
2017-Sep-29 19:00N 09°31' W 013°43'0 0.0
2017-Sep-29 18:30N 09°31' W 013°43'0 0.0
2017-Sep-29 18:00N 09°31' W 013°43'0 0.0
2017-Sep-29 17:30N 09°31' W 013°43'0 0.0
2017-Sep-29 17:00N 09°31' W 013°43'0 0.0
2017-Sep-29 16:30N 09°31' W 013°43'0 0.0
2017-Sep-29 16:00N 09°31' W 013°43'0 0.0
2017-Sep-29 15:30N 09°31' W 013°43'0 0.0
2017-Sep-29 15:00N 09°31' W 013°43'0 0.0
2017-Sep-29 14:30N 09°31' W 013°43'0 0.0
2017-Sep-29 14:00N 09°31' W 013°43'0 0.0
2017-Sep-29 13:30N 09°31' W 013°43'0 0.0
2017-Sep-29 13:00N 09°31' W 013°43'0 0.2
2017-Sep-29 12:31N 09°31' W 013°43'0 0.3
2017-Sep-29 12:00N 09°31' W 013°43'0 0.0
2017-Sep-29 11:30N 09°31' W 013°43'0 0.0
2017-Sep-29 11:00N 09°31' W 013°43'0 0.0
2017-Sep-29 10:30N 09°31' W 013°43'0 0.0
2017-Sep-29 10:00N 09°31' W 013°43'0 0.0
2017-Sep-29 09:30N 09°31' W 013°43'3 6.1
2017-Sep-29 09:00N 09°28' W 013°44'2 4.0
2017-Sep-29 08:30N 09°27' W 013°42'3 5.2
2017-Sep-29 08:00N 09°29' W 013°44'2 3.4
2017-Sep-29 07:31N 09°31' W 013°43'0 0.1
2017-Sep-29 01:16N 09°30' W 013°44'0 0.1
2017-Sep-29 01:00N 09°30' W 013°44'0 0.1
2017-Sep-29 00:31N 09°30' W 013°44'  
Track history (hours):
 
Tides and Currents Weather Stations Pressure Air Temp Water Temp Dewpoint Dewpoint Depression Visibility Wind Speed Wind Dir Waves Ship Positions

Breydel

Last reported at 2017-Oct-09 00:20 UTC. Time now 2017-Nov-21 21:22 UTC.
Position N 06°04' E 001°13'.
Warning: this ship's position is 43 days out of date.

Length 124 m; draft 5.5 m.

Type: Dredging. MMSI: 205520000.

Date/timePositionNaut miles runAvg speedWind from/ knotsBaromVisibWave heightAir tempDewpointWater temp
2017-Oct-09 00:20N 06°04' E 001°13'1 1.1
2017-Oct-08 23:00N 06°04' E 001°15'0 0.0
2017-Oct-08 22:30N 06°04' E 001°15'0 0.0
2017-Oct-08 21:59N 06°04' E 001°15'0 0.0
2017-Oct-08 21:14N 06°04' E 001°15'0 0.0
2017-Oct-08 20:59N 06°04' E 001°15'0 0.0
2017-Oct-08 20:17N 06°04' E 001°15'0 0.0
2017-Oct-08 19:58N 06°04' E 001°15'0 0.0
2017-Oct-08 19:19N 06°04' E 001°15'0 0.0
2017-Oct-08 18:58N 06°04' E 001°15'0 0.0
2017-Oct-08 18:25N 06°04' E 001°15'0 0.0
2017-Oct-08 18:00N 06°04' E 001°15'6 5.5
2017-Oct-08 16:55N 05°59' E 001°13'  
2017-Oct-03 07:50N 08°27' W 014°04'310.1
2017-Oct-03 07:30N 08°30' W 014°03'510.2
2017-Oct-03 07:00N 08°34' W 014°01'510.2
2017-Oct-03 06:31N 08°39' W 013°59'510.2
2017-Oct-03 06:01N 08°44' W 013°58'2310.1
2017-Oct-03 03:42N 09°06' W 013°50'210.4
2017-Oct-03 03:30N 09°08' W 013°49'510.2
2017-Oct-03 03:00N 09°13' W 013°47'5 9.9
2017-Oct-03 02:30N 09°17' W 013°46'5 9.9
2017-Oct-03 02:00N 09°22' W 013°44'510.0
2017-Oct-03 01:30N 09°27' W 013°44'4 8.7
2017-Oct-03 01:00N 09°31' W 013°43'0 0.2
2017-Oct-03 00:30N 09°31' W 013°43'0 0.1
2017-Oct-03 00:00N 09°31' W 013°43'0 0.0
2017-Oct-02 23:30N 09°31' W 013°43'0 0.1
2017-Oct-02 23:00N 09°31' W 013°43'0 0.1
2017-Oct-02 22:30N 09°31' W 013°43'0 0.1
2017-Oct-02 22:00N 09°31' W 013°43'0 0.1
2017-Oct-02 21:30N 09°31' W 013°43'0 0.1
2017-Oct-02 21:00N 09°31' W 013°43'0 0.1
2017-Oct-02 20:30N 09°31' W 013°43'0 0.0
2017-Oct-02 20:00N 09°31' W 013°43'0 0.0
2017-Oct-02 19:30N 09°31' W 013°43'0 0.0
2017-Oct-02 19:01N 09°31' W 013°43'0 0.1
2017-Oct-02 18:30N 09°31' W 013°43'0 0.2
2017-Oct-02 18:00N 09°31' W 013°43'0 0.0
2017-Oct-02 17:30N 09°31' W 013°43'0 0.1
2017-Oct-02 17:00N 09°31' W 013°43'0 0.1
2017-Oct-02 16:30N 09°31' W 013°43'0 0.0
2017-Oct-02 16:00N 09°31' W 013°43'0 0.0
2017-Oct-02 15:31N 09°31' W 013°43'0 0.1
2017-Oct-02 15:00N 09°31' W 013°43'0 0.1
2017-Oct-02 14:30N 09°31' W 013°43'0 0.0
2017-Oct-02 14:00N 09°31' W 013°43'0 0.1
2017-Oct-02 13:30N 09°31' W 013°43'0 0.0
2017-Oct-02 13:00N 09°31' W 013°43'0 0.0
2017-Oct-02 12:31N 09°31' W 013°43'5 4.6
2017-Oct-02 11:22N 09°26' W 013°43'2 6.0
2017-Oct-02 11:00N 09°24' W 013°43'0 0.0
2017-Oct-02 10:30N 09°24' W 013°43'0 0.0
2017-Oct-02 10:00N 09°24' W 013°43'0 0.0
2017-Oct-02 09:30N 09°24' W 013°43'0 0.5
2017-Oct-02 09:00N 09°24' W 013°44'0 0.1
2017-Oct-02 08:30N 09°24' W 013°44'0 0.1
2017-Oct-02 08:00N 09°24' W 013°44'0 0.1
2017-Oct-02 07:30N 09°24' W 013°43'0 0.4
2017-Oct-02 07:00N 09°24' W 013°43'0 0.1
2017-Oct-02 06:30N 09°24' W 013°44'0 0.2
2017-Oct-02 06:01N 09°24' W 013°43'0 0.1
2017-Oct-02 05:30N 09°24' W 013°43'0 0.3
2017-Oct-02 05:00N 09°24' W 013°43'3 6.8
2017-Oct-02 04:30N 09°28' W 013°43'4 7.4
2017-Oct-02 04:00N 09°31' W 013°43'0 0.3
2017-Oct-02 03:30N 09°31' W 013°43'0 0.1
2017-Oct-02 03:00N 09°31' W 013°43'0 0.1
2017-Oct-02 02:30N 09°31' W 013°43'0 0.0
2017-Oct-02 02:00N 09°31' W 013°43'0 0.0
2017-Oct-02 01:30N 09°31' W 013°43'0 0.0
2017-Oct-02 01:00N 09°31' W 013°43'0 0.0
2017-Oct-02 00:30N 09°31' W 013°43'0 0.1
2017-Oct-02 00:00N 09°31' W 013°43'0 0.1
2017-Oct-01 23:30N 09°31' W 013°43'0 0.0
2017-Oct-01 23:00N 09°31' W 013°43'0 0.1
2017-Oct-01 22:30N 09°31' W 013°43'0 0.0
2017-Oct-01 22:00N 09°31' W 013°43'0 0.0
2017-Oct-01 21:30N 09°31' W 013°43'0 0.1
2017-Oct-01 21:00N 09°31' W 013°43'0 0.2
2017-Oct-01 20:30N 09°31' W 013°43'0 0.0
2017-Oct-01 20:00N 09°31' W 013°43'0 0.0
2017-Oct-01 19:30N 09°31' W 013°43'0 0.0
2017-Oct-01 19:00N 09°31' W 013°43'0 0.0
2017-Oct-01 18:30N 09°31' W 013°43'0 0.0
2017-Oct-01 18:00N 09°31' W 013°43'0 0.0
2017-Oct-01 17:30N 09°31' W 013°43'0 0.0
2017-Oct-01 17:00N 09°31' W 013°43'0 0.0
2017-Oct-01 16:30N 09°31' W 013°43'0 0.0
2017-Oct-01 16:00N 09°31' W 013°43'0 0.0
2017-Oct-01 15:30N 09°31' W 013°43'0 0.0
2017-Oct-01 15:00N 09°31' W 013°43'0 0.0
2017-Oct-01 14:30N 09°31' W 013°43'0 0.0
2017-Oct-01 14:00N 09°31' W 013°43'0 0.0
2017-Oct-01 13:30N 09°31' W 013°43'0 0.0
2017-Oct-01 13:00N 09°31' W 013°43'0 0.0
2017-Oct-01 12:30N 09°31' W 013°43'0 0.0
2017-Oct-01 12:00N 09°31' W 013°43'0 0.0
2017-Oct-01 11:30N 09°31' W 013°43'0 0.0
2017-Oct-01 11:00N 09°31' W 013°43'0 0.0
2017-Oct-01 10:30N 09°31' W 013°43'0 0.0
2017-Oct-01 10:00N 09°31' W 013°43'0 0.0
2017-Oct-01 09:30N 09°31' W 013°43'0 0.0
2017-Oct-01 09:00N 09°31' W 013°43'0 0.0
2017-Oct-01 08:30N 09°31' W 013°43'0 0.0
2017-Oct-01 08:00N 09°31' W 013°43'0 0.0
2017-Oct-01 07:30N 09°31' W 013°43'0 0.0
2017-Oct-01 07:00N 09°31' W 013°43'0 0.0
2017-Oct-01 06:30N 09°31' W 013°43'0 0.0
2017-Oct-01 06:00N 09°31' W 013°43'0 0.0
2017-Oct-01 05:30N 09°31' W 013°43'0 0.0
2017-Oct-01 05:00N 09°31' W 013°43'0 0.0
2017-Oct-01 04:30N 09°31' W 013°43'0 0.0
2017-Oct-01 04:00N 09°31' W 013°43'0 0.0
2017-Oct-01 03:30N 09°31' W 013°43'0 0.0
2017-Sep-30 02:00N 09°31' W 013°43'0 0.0
2017-Sep-30 01:30N 09°31' W 013°43'0 0.0
2017-Sep-30 01:00N 09°31' W 013°43'0 0.0
2017-Sep-30 00:30N 09°31' W 013°43'0 0.0
2017-Sep-30 00:00N 09°31' W 013°43'0 0.0
2017-Sep-29 23:30N 09°31' W 013°43'0 0.0
2017-Sep-29 23:00N 09°31' W 013°43'0 0.0
2017-Sep-29 22:30N 09°31' W 013°43'0 0.0
2017-Sep-29 21:19N 09°31' W 013°43'0 0.0
2017-Sep-29 21:00N 09°31' W 013°43'0 0.0
2017-Sep-29 20:30N 09°31' W 013°43'0 0.0
2017-Sep-29 20:00N 09°31' W 013°43'0 0.0
2017-Sep-29 19:30N 09°31' W 013°43'0 0.0
2017-Sep-29 19:00N 09°31' W 013°43'0 0.0
2017-Sep-29 18:30N 09°31' W 013°43'0 0.0
2017-Sep-29 18:00N 09°31' W 013°43'0 0.0
2017-Sep-29 17:30N 09°31' W 013°43'0 0.0
2017-Sep-29 17:00N 09°31' W 013°43'0 0.0
2017-Sep-29 16:30N 09°31' W 013°43'0 0.0
2017-Sep-29 16:00N 09°31' W 013°43'0 0.0
2017-Sep-29 15:30N 09°31' W 013°43'0 0.0
2017-Sep-29 15:00N 09°31' W 013°43'0 0.0
2017-Sep-29 14:30N 09°31' W 013°43'0 0.0
2017-Sep-29 14:00N 09°31' W 013°43'0 0.0
2017-Sep-29 13:30N 09°31' W 013°43'0 0.0
2017-Sep-29 13:00N 09°31' W 013°43'0 0.2
2017-Sep-29 12:31N 09°31' W 013°43'0 0.3
2017-Sep-29 12:00N 09°31' W 013°43'0 0.0
2017-Sep-29 11:30N 09°31' W 013°43'0 0.0
2017-Sep-29 11:00N 09°31' W 013°43'0 0.0
2017-Sep-29 10:30N 09°31' W 013°43'0 0.0
2017-Sep-29 10:00N 09°31' W 013°43'0 0.0
2017-Sep-29 09:30N 09°31' W 013°43'3 6.1
2017-Sep-29 09:00N 09°28' W 013°44'2 4.0
2017-Sep-29 08:30N 09°27' W 013°42'3 5.2
2017-Sep-29 08:00N 09°29' W 013°44'2 3.4
2017-Sep-29 07:31N 09°31' W 013°43'0 0.1
2017-Sep-29 01:16N 09°30' W 013°44'0 0.1
2017-Sep-29 01:00N 09°30' W 013°44'0 0.1
2017-Sep-29 00:31N 09°30' W 013°44'  

Dump ship's entire track history